sensor_id;sensor_type;location;lat;lon;timestamp;pressure;altitude;pressure_sealevel;temperature;humidity
20620;BME280;10469;42.720;23.252;2023-08-01T00:02:06;94571.22;;;19.86;100.00
20620;BME280;10469;42.720;23.252;2023-08-01T00:04:32;94575.44;;;19.64;100.00
20620;BME280;10469;42.720;23.252;2023-08-01T00:06:57;94581.00;;;19.73;100.00
20620;BME280;10469;42.720;23.252;2023-08-01T00:09:23;94573.88;;;20.04;100.00
20620;BME280;10469;42.720;23.252;2023-08-01T00:11:49;94568.44;;;19.91;100.00
20620;BME280;10469;42.720;23.252;2023-08-01T00:14:14;94550.53;;;19.57;100.00
20620;BME280;10469;42.720;23.252;2023-08-01T00:16:40;94559.06;;;19.37;100.00
20620;BME280;10469;42.720;23.252;2023-08-01T00:19:06;94562.47;;;19.61;100.00
20620;BME280;10469;42.720;23.252;2023-08-01T00:21:31;94562.47;;;19.61;100.00
20620;BME280;10469;42.720;23.252;2023-08-01T00:23:57;94565.69;;;19.77;100.00
20620;BME280;10469;42.720;23.252;2023-08-01T00:26:23;94574.38;;;19.79;100.00
20620;BME280;10469;42.720;23.252;2023-08-01T00:28:49;94569.53;;;19.76;100.00
20620;BME280;10469;42.720;23.252;2023-08-01T00:31:14;94571.28;;;19.53;100.00
20620;BME280;10469;42.720;23.252;2023-08-01T00:33:40;94562.13;;;19.49;100.00
20620;BME280;10469;42.720;23.252;2023-08-01T00:36:06;94574.16;;;19.43;100.00
20620;BME280;10469;42.720;23.252;2023-08-01T00:38:35;94576.88;;;19.43;100.00
20620;BME280;10469;42.720;23.252;2023-08-01T00:41:01;94575.31;;;19.55;100.00
20620;BME280;10469;42.720;23.252;2023-08-01T00:43:27;94578.53;;;19.44;100.00
20620;BME280;10469;42.720;23.252;2023-08-01T00:45:57;94563.50;;;19.46;100.00
20620;BME280;10469;42.720;23.252;2023-08-01T00:48:24;94570.53;;;19.66;100.00
20620;BME280;10469;42.720;23.252;2023-08-01T00:50:50;94554.97;;;19.53;100.00
20620;BME280;10469;42.720;23.252;2023-08-01T00:53:17;94560.06;;;19.87;100.00
20620;BME280;10469;42.720;23.252;2023-08-01T00:55:43;94540.50;;;19.71;100.00
20620;BME280;10469;42.720;23.252;2023-08-01T00:58:09;94557.81;;;20.03;100.00
20620;BME280;10469;42.720;23.252;2023-08-01T01:00:35;94545.34;;;19.74;100.00
20620;BME280;10469;42.720;23.252;2023-08-01T01:03:01;94544.66;;;19.83;100.00
20620;BME280;10469;42.720;23.252;2023-08-01T01:05:27;94555.00;;;20.08;100.00
20620;BME280;10469;42.720;23.252;2023-08-01T01:07:57;94546.22;;;20.11;100.00
20620;BME280;10469;42.720;23.252;2023-08-01T01:10:23;94534.84;;;20.09;100.00
20620;BME280;10469;42.720;23.252;2023-08-01T01:12:49;94548.44;;;20.23;100.00
20620;BME280;10469;42.720;23.252;2023-08-01T01:15:15;94543.19;;;20.26;100.00
20620;BME280;10469;42.720;23.252;2023-08-01T01:17:41;94528.25;;;20.24;100.00
20620;BME280;10469;42.720;23.252;2023-08-01T01:20:07;94538.34;;;20.23;100.00
20620;BME280;10469;42.720;23.252;2023-08-01T01:22:33;94534.63;;;20.05;100.00
20620;BME280;10469;42.720;23.252;2023-08-01T01:25:01;94539.59;;;20.03;100.00
20620;BME280;10469;42.720;23.252;2023-08-01T01:27:28;94540.91;;;19.92;100.00
20620;BME280;10469;42.720;23.252;2023-08-01T01:29:55;94523.78;;;19.78;100.00
20620;BME280;10469;42.720;23.252;2023-08-01T01:32:21;94533.94;;;19.72;100.00
20620;BME280;10469;42.720;23.252;2023-08-01T01:34:47;94535.28;;;19.61;100.00
20620;BME280;10469;42.720;23.252;2023-08-01T01:37:13;94516.72;;;19.63;100.00
20620;BME280;10469;42.720;23.252;2023-08-01T01:39:38;94519.97;;;19.65;100.00
20620;BME280;10469;42.720;23.252;2023-08-01T01:42:04;94530.53;;;19.80;100.00
20620;BME280;10469;42.720;23.252;2023-08-01T01:44:30;94529.03;;;19.74;100.00
20620;BME280;10469;42.720;23.252;2023-08-01T01:46:55;94527.31;;;19.65;100.00
20620;BME280;10469;42.720;23.252;2023-08-01T01:49:22;94529.47;;;19.49;100.00
20620;BME280;10469;42.720;23.252;2023-08-01T01:51:50;94543.69;;;19.60;100.00
20620;BME280;10469;42.720;23.252;2023-08-01T01:54:15;94541.50;;;19.62;100.00
20620;BME280;10469;42.720;23.252;2023-08-01T01:56:41;94548.63;;;19.44;100.00
20620;BME280;10469;42.720;23.252;2023-08-01T01:59:07;94530.91;;;19.00;100.00
20620;BME280;10469;42.720;23.252;2023-08-01T02:01:32;94527.66;;;18.98;100.00
20620;BME280;10469;42.720;23.252;2023-08-01T02:03:58;94547.00;;;18.96;100.00
20620;BME280;10469;42.720;23.252;2023-08-01T02:06:23;94520.75;;;18.73;100.00
20620;BME280;10469;42.720;23.252;2023-08-01T02:08:49;94546.13;;;19.15;100.00
20620;BME280;10469;42.720;23.252;2023-08-01T02:11:15;94549.69;;;19.29;100.00
20620;BME280;10469;42.720;23.252;2023-08-01T02:13:40;94546.44;;;19.13;100.00
20620;BME280;10469;42.720;23.252;2023-08-01T02:16:06;94540.78;;;19.10;100.00
20620;BME280;10469;42.720;23.252;2023-08-01T02:18:31;94548.06;;;18.95;100.00
20620;BME280;10469;42.720;23.252;2023-08-01T02:20:57;94539.31;;;18.85;100.00
20620;BME280;10469;42.720;23.252;2023-08-01T02:23:23;94535.56;;;18.80;100.00
20620;BME280;10469;42.720;23.252;2023-08-01T02:25:48;94536.16;;;18.59;100.00
20620;BME280;10469;42.720;23.252;2023-08-01T02:28:14;94537.69;;;18.46;100.00
20620;BME280;10469;42.720;23.252;2023-08-01T02:30:40;94544.09;;;18.36;100.00
20620;BME280;10469;42.720;23.252;2023-08-01T02:33:05;94543.41;;;18.25;100.00
20620;BME280;10469;42.720;23.252;2023-08-01T02:35:31;94537.31;;;18.15;100.00
20620;BME280;10469;42.720;23.252;2023-08-01T02:37:57;94537.09;;;18.11;100.00
20620;BME280;10469;42.720;23.252;2023-08-01T02:40:23;94533.50;;;17.97;100.00
20620;BME280;10469;42.720;23.252;2023-08-01T02:42:48;94548.19;;;17.91;100.00
20620;BME280;10469;42.720;23.252;2023-08-01T02:45:14;94545.88;;;18.03;100.00
20620;BME280;10469;42.720;23.252;2023-08-01T02:47:40;94530.66;;;17.83;100.00
20620;BME280;10469;42.720;23.252;2023-08-01T02:50:06;94545.56;;;17.86;100.00
20620;BME280;10469;42.720;23.252;2023-08-01T02:52:31;94535.56;;;18.05;100.00
20620;BME280;10469;42.720;23.252;2023-08-01T02:54:57;94534.53;;;18.20;100.00
20620;BME280;10469;42.720;23.252;2023-08-01T02:57:23;94544.28;;;18.02;100.00
20620;BME280;10469;42.720;23.252;2023-08-01T02:59:49;94550.03;;;17.95;100.00
20620;BME280;10469;42.720;23.252;2023-08-01T03:02:15;94546.19;;;18.01;100.00
20620;BME280;10469;42.720;23.252;2023-08-01T03:04:41;94539.84;;;17.87;100.00
20620;BME280;10469;42.720;23.252;2023-08-01T03:07:06;94550.09;;;17.90;100.00
20620;BME280;10469;42.720;23.252;2023-08-01T03:09:32;94539.19;;;17.95;100.00
20620;BME280;10469;42.720;23.252;2023-08-01T03:11:58;94544.28;;;18.02;100.00
20620;BME280;10469;42.720;23.252;2023-08-01T03:14:24;94539.50;;;17.94;100.00
20620;BME280;10469;42.720;23.252;2023-08-01T03:16:49;94544.38;;;17.92;100.00
20620;BME280;10469;42.720;23.252;2023-08-01T03:19:15;94550.75;;;17.82;100.00
20620;BME280;10469;42.720;23.252;2023-08-01T03:21:41;94538.09;;;17.72;100.00
20620;BME280;10469;42.720;23.252;2023-08-01T03:24:06;94550.31;;;17.46;100.00
20620;BME280;10469;42.720;23.252;2023-08-01T03:26:35;94552.00;;;17.42;100.00
20620;BME280;10469;42.720;23.252;2023-08-01T03:29:00;94561.72;;;17.43;100.00
20620;BME280;10469;42.720;23.252;2023-08-01T03:31:27;94550.44;;;17.60;100.00
20620;BME280;10469;42.720;23.252;2023-08-01T03:33:53;94555.16;;;17.73;100.00
20620;BME280;10469;42.720;23.252;2023-08-01T03:36:18;94555.34;;;17.58;100.00
20620;BME280;10469;42.720;23.252;2023-08-01T03:38:44;94565.44;;;17.52;100.00
20620;BME280;10469;42.720;23.252;2023-08-01T03:41:10;94565.31;;;17.38;100.00
20620;BME280;10469;42.720;23.252;2023-08-01T03:43:35;94566.16;;;17.34;100.00
20620;BME280;10469;42.720;23.252;2023-08-01T03:46:01;94558.16;;;17.47;100.00
20620;BME280;10469;42.720;23.252;2023-08-01T03:48:27;94565.91;;;17.30;100.00
20620;BME280;10469;42.720;23.252;2023-08-01T03:50:53;94552.06;;;17.08;100.00
20620;BME280;10469;42.720;23.252;2023-08-01T03:53:18;94558.47;;;17.17;100.00
20620;BME280;10469;42.720;23.252;2023-08-01T03:55:44;94570.72;;;17.38;100.00
20620;BME280;10469;42.720;23.252;2023-08-01T03:58:10;94572.16;;;17.30;100.00
20620;BME280;10469;42.720;23.252;2023-08-01T04:00:35;94567.44;;;17.41;100.00
20620;BME280;10469;42.720;23.252;2023-08-01T04:03:01;94568.81;;;17.39;100.00
20620;BME280;10469;42.720;23.252;2023-08-01T04:05:30;94576.75;;;17.30;100.00
20620;BME280;10469;42.720;23.252;2023-08-01T04:07:56;94562.84;;;17.42;100.00
20620;BME280;10469;42.720;23.252;2023-08-01T04:10:22;94553.19;;;17.30;100.00
20620;BME280;10469;42.720;23.252;2023-08-01T04:12:49;94565.03;;;17.64;100.00
20620;BME280;10469;42.720;23.252;2023-08-01T04:15:14;94564.88;;;17.26;100.00
20620;BME280;10469;42.720;23.252;2023-08-01T04:17:40;94566.66;;;17.41;100.00
20620;BME280;10469;42.720;23.252;2023-08-01T04:20:06;94577.50;;;17.41;100.00
20620;BME280;10469;42.720;23.252;2023-08-01T04:22:32;94580.72;;;17.43;100.00
20620;BME280;10469;42.720;23.252;2023-08-01T04:24:58;94585.88;;;17.39;100.00
20620;BME280;10469;42.720;23.252;2023-08-01T04:27:23;94580.94;;;17.46;100.00
20620;BME280;10469;42.720;23.252;2023-08-01T04:29:49;94581.78;;;17.95;100.00
20620;BME280;10469;42.720;23.252;2023-08-01T04:32:15;94575.16;;;18.06;100.00
20620;BME280;10469;42.720;23.252;2023-08-01T04:34:43;94573.72;;;17.90;100.00
20620;BME280;10469;42.720;23.252;2023-08-01T04:37:09;94584.88;;;17.88;100.00
20620;BME280;10469;42.720;23.252;2023-08-01T04:39:36;94577.53;;;17.89;100.00
20620;BME280;10469;42.720;23.252;2023-08-01T04:42:01;94567.78;;;17.88;100.00
20620;BME280;10469;42.720;23.252;2023-08-01T04:44:27;94576.28;;;18.00;100.00
20620;BME280;10469;42.720;23.252;2023-08-01T04:46:54;94573.84;;;17.79;100.00
20620;BME280;10469;42.720;23.252;2023-08-01T04:49:20;94560.47;;;17.88;100.00
20620;BME280;10469;42.720;23.252;2023-08-01T04:51:45;94577.94;;;18.01;100.00
20620;BME280;10469;42.720;23.252;2023-08-01T04:54:11;94569.59;;;18.16;100.00
20620;BME280;10469;42.720;23.252;2023-08-01T04:56:36;94575.97;;;18.25;100.00
20620;BME280;10469;42.720;23.252;2023-08-01T04:59:02;94572.06;;;19.07;100.00
20620;BME280;10469;42.720;23.252;2023-08-01T05:01:28;94565.09;;;19.66;100.00
20620;BME280;10469;42.720;23.252;2023-08-01T05:03:53;94567.38;;;19.73;100.00
20620;BME280;10469;42.720;23.252;2023-08-01T05:06:21;94554.00;;;19.63;100.00
20620;BME280;10469;42.720;23.252;2023-08-01T05:08:47;94564.81;;;19.35;100.00
20620;BME280;10469;42.720;23.252;2023-08-01T05:11:12;94558.69;;;19.43;100.00
20620;BME280;10469;42.720;23.252;2023-08-01T05:13:38;94556.81;;;20.26;100.00
20620;BME280;10469;42.720;23.252;2023-08-01T05:16:03;94552.81;;;19.83;100.00
20620;BME280;10469;42.720;23.252;2023-08-01T05:18:29;94569.13;;;19.96;100.00
20620;BME280;10469;42.720;23.252;2023-08-01T05:20:54;94564.69;;;19.87;100.00
20620;BME280;10469;42.720;23.252;2023-08-01T05:23:20;94569.34;;;19.86;100.00
20620;BME280;10469;42.720;23.252;2023-08-01T05:25:46;94571.72;;;20.15;100.00
20620;BME280;10469;42.720;23.252;2023-08-01T05:28:11;94576.66;;;20.27;100.00
20620;BME280;10469;42.720;23.252;2023-08-01T05:30:37;94574.72;;;20.91;100.00
20620;BME280;10469;42.720;23.252;2023-08-01T05:33:03;94575.81;;;21.58;100.00
20620;BME280;10469;42.720;23.252;2023-08-01T05:35:29;94575.44;;;21.82;100.00
20620;BME280;10469;42.720;23.252;2023-08-01T05:37:54;94576.50;;;22.03;100.00
20620;BME280;10469;42.720;23.252;2023-08-01T05:40:20;94574.03;;;21.93;100.00
20620;BME280;10469;42.720;23.252;2023-08-01T05:42:45;94566.81;;;21.97;100.00
20620;BME280;10469;42.720;23.252;2023-08-01T05:45:11;94567.41;;;22.16;100.00
20620;BME280;10469;42.720;23.252;2023-08-01T05:47:37;94569.13;;;22.69;100.00
20620;BME280;10469;42.720;23.252;2023-08-01T05:50:05;94546.00;;;23.01;100.00
20620;BME280;10469;42.720;23.252;2023-08-01T05:52:31;94561.09;;;23.16;100.00
20620;BME280;10469;42.720;23.252;2023-08-01T05:54:57;94545.63;;;23.38;100.00
20620;BME280;10469;42.720;23.252;2023-08-01T05:57:22;94560.72;;;23.44;100.00
20620;BME280;10469;42.720;23.252;2023-08-01T05:59:48;94557.22;;;23.17;100.00
20620;BME280;10469;42.720;23.252;2023-08-01T06:02:13;94563.78;;;23.42;100.00
20620;BME280;10469;42.720;23.252;2023-08-01T06:04:39;94559.50;;;23.07;100.00
20620;BME280;10469;42.720;23.252;2023-08-01T06:07:05;94548.50;;;23.50;100.00
20620;BME280;10469;42.720;23.252;2023-08-01T06:09:31;94545.66;;;24.23;100.00
20620;BME280;10469;42.720;23.252;2023-08-01T06:11:56;94549.72;;;25.30;100.00
20620;BME280;10469;42.720;23.252;2023-08-01T06:14:22;94551.19;;;26.55;100.00
20620;BME280;10469;42.720;23.252;2023-08-01T06:16:48;94539.88;;;28.13;96.65
20620;BME280;10469;42.720;23.252;2023-08-01T06:19:14;94542.66;;;25.74;100.00
20620;BME280;10469;42.720;23.252;2023-08-01T06:21:39;94550.81;;;25.17;100.00
20620;BME280;10469;42.720;23.252;2023-08-01T06:24:05;94536.28;;;26.32;100.00
20620;BME280;10469;42.720;23.252;2023-08-01T06:26:31;94535.97;;;24.97;100.00
20620;BME280;10469;42.720;23.252;2023-08-01T06:28:56;94540.34;;;27.71;98.59
20620;BME280;10469;42.720;23.252;2023-08-01T06:31:23;94541.22;;;27.03;99.14
20620;BME280;10469;42.720;23.252;2023-08-01T06:33:48;94528.06;;;28.12;93.42
20620;BME280;10469;42.720;23.252;2023-08-01T06:36:14;94530.88;;;28.32;84.73
20620;BME280;10469;42.720;23.252;2023-08-01T06:38:41;94529.66;;;27.54;93.47
20620;BME280;10469;42.720;23.252;2023-08-01T06:41:07;94539.75;;;27.34;95.19
20620;BME280;10469;42.720;23.252;2023-08-01T06:43:33;94537.66;;;26.38;97.24
20620;BME280;10469;42.720;23.252;2023-08-01T06:45:58;94543.34;;;27.50;94.96
20620;BME280;10469;42.720;23.252;2023-08-01T06:48:24;94525.44;;;28.19;91.43
20620;BME280;10469;42.720;23.252;2023-08-01T06:50:49;94536.41;;;28.00;91.54
20620;BME280;10469;42.720;23.252;2023-08-01T06:53:15;94529.72;;;29.19;84.02
20620;BME280;10469;42.720;23.252;2023-08-01T06:55:41;94530.16;;;28.35;84.19
20620;BME280;10469;42.720;23.252;2023-08-01T06:58:06;94533.47;;;28.75;85.23
20620;BME280;10469;42.720;23.252;2023-08-01T07:00:32;94527.44;;;29.63;77.65
20620;BME280;10469;42.720;23.252;2023-08-01T07:02:57;94523.03;;;29.82;68.63
20620;BME280;10469;42.720;23.252;2023-08-01T07:05:23;94527.81;;;29.85;72.08
20620;BME280;10469;42.720;23.252;2023-08-01T07:07:50;94528.22;;;29.44;75.90
20620;BME280;10469;42.720;23.252;2023-08-01T07:10:15;94512.81;;;29.43;79.11
20620;BME280;10469;42.720;23.252;2023-08-01T07:12:41;94516.69;;;29.81;77.80
20620;BME280;10469;42.720;23.252;2023-08-01T07:15:07;94517.91;;;29.61;80.54
20620;BME280;10469;42.720;23.252;2023-08-01T07:17:33;94513.38;;;30.67;70.38
20620;BME280;10469;42.720;23.252;2023-08-01T07:19:59;94513.94;;;28.84;80.74
20620;BME280;10469;42.720;23.252;2023-08-01T07:22:24;94512.47;;;28.71;85.98
20620;BME280;10469;42.720;23.252;2023-08-01T07:24:54;94510.22;;;29.12;76.43
20620;BME280;10469;42.720;23.252;2023-08-01T07:27:20;94517.56;;;29.04;77.99
20620;BME280;10469;42.720;23.252;2023-08-01T07:29:46;94498.97;;;29.20;74.54
20620;BME280;10469;42.720;23.252;2023-08-01T07:32:11;94495.91;;;29.45;77.68
20620;BME280;10469;42.720;23.252;2023-08-01T07:34:37;94498.84;;;29.75;77.25
20620;BME280;10469;42.720;23.252;2023-08-01T07:37:03;94503.75;;;31.14;67.76
20620;BME280;10469;42.720;23.252;2023-08-01T07:39:28;94503.13;;;31.28;65.26
20620;BME280;10469;42.720;23.252;2023-08-01T07:41:55;94501.13;;;29.50;76.25
20620;BME280;10469;42.720;23.252;2023-08-01T07:44:21;94503.84;;;29.69;77.10
20620;BME280;10469;42.720;23.252;2023-08-01T07:46:47;94498.69;;;29.91;73.97
20620;BME280;10469;42.720;23.252;2023-08-01T07:49:13;94498.41;;;30.19;74.20
20620;BME280;10469;42.720;23.252;2023-08-01T07:51:38;94508.34;;;31.70;64.87
20620;BME280;10469;42.720;23.252;2023-08-01T07:54:04;94501.94;;;32.00;60.89
20620;BME280;10469;42.720;23.252;2023-08-01T07:56:29;94498.78;;;30.17;73.46
20620;BME280;10469;42.720;23.252;2023-08-01T07:58:55;94492.53;;;30.73;69.87
20620;BME280;10469;42.720;23.252;2023-08-01T08:01:21;94498.91;;;30.51;70.07
20620;BME280;10469;42.720;23.252;2023-08-01T08:03:46;94499.56;;;31.61;67.71
20620;BME280;10469;42.720;23.252;2023-08-01T08:06:12;94490.97;;;32.66;59.87
20620;BME280;10469;42.720;23.252;2023-08-01T08:08:38;94488.66;;;32.23;60.98
20620;BME280;10469;42.720;23.252;2023-08-01T08:11:03;94483.56;;;31.17;65.38
20620;BME280;10469;42.720;23.252;2023-08-01T08:13:29;94482.44;;;29.86;79.13
20620;BME280;10469;42.720;23.252;2023-08-01T08:15:56;94471.38;;;29.43;77.97
20620;BME280;10469;42.720;23.252;2023-08-01T08:18:25;94486.59;;;31.35;70.37
20620;BME280;10469;42.720;23.252;2023-08-01T08:20:50;94474.59;;;32.50;62.58
20620;BME280;10469;42.720;23.252;2023-08-01T08:23:16;94464.34;;;32.06;62.12
20620;BME280;10469;42.720;23.252;2023-08-01T08:25:42;94472.25;;;32.59;58.10
20620;BME280;10469;42.720;23.252;2023-08-01T08:28:13;94476.88;;;31.18;68.70
20620;BME280;10469;42.720;23.252;2023-08-01T08:30:39;94475.06;;;31.67;65.81
20620;BME280;10469;42.720;23.252;2023-08-01T08:33:04;94463.06;;;31.96;63.59
20620;BME280;10469;42.720;23.252;2023-08-01T08:35:35;94431.84;;;32.62;59.71
20620;BME280;10469;42.720;23.252;2023-08-01T08:38:03;94425.84;;;33.43;56.17
20620;BME280;10469;42.720;23.252;2023-08-01T08:40:32;94463.03;;;36.09;45.68
20620;BME280;10469;42.720;23.252;2023-08-01T08:43:01;94452.47;;;33.59;53.18
20620;BME280;10469;42.720;23.252;2023-08-01T08:45:29;94452.03;;;34.96;48.25
20620;BME280;10469;42.720;23.252;2023-08-01T08:48:01;94454.25;;;35.40;45.95
20620;BME280;10469;42.720;23.252;2023-08-01T08:50:29;94434.19;;;34.79;46.04
20620;BME280;10469;42.720;23.252;2023-08-01T08:52:56;94431.88;;;33.92;50.21
20620;BME280;10469;42.720;23.252;2023-08-01T08:55:23;94441.22;;;33.16;54.52
20620;BME280;10469;42.720;23.252;2023-08-01T08:57:51;94426.56;;;33.12;51.92
20620;BME280;10469;42.720;23.252;2023-08-01T09:00:18;94438.22;;;34.32;48.52
20620;BME280;10469;42.720;23.252;2023-08-01T09:02:45;94427.94;;;32.77;55.76
20620;BME280;10469;42.720;23.252;2023-08-01T09:05:10;94426.84;;;32.27;58.31
20620;BME280;10469;42.720;23.252;2023-08-01T09:07:39;94412.38;;;33.70;51.17
20620;BME280;10469;42.720;23.252;2023-08-01T09:10:07;94429.50;;;34.30;50.24
20620;BME280;10469;42.720;23.252;2023-08-01T09:12:34;94424.22;;;31.93;59.79
20620;BME280;10469;42.720;23.252;2023-08-01T09:15:00;94407.72;;;32.73;57.66
20620;BME280;10469;42.720;23.252;2023-08-01T09:17:25;94411.81;;;31.80;59.31
20620;BME280;10469;42.720;23.252;2023-08-01T09:20:07;94403.66;;;34.15;51.31
20620;BME280;10469;42.720;23.252;2023-08-01T09:22:46;94413.19;;;33.75;53.55
20620;BME280;10469;42.720;23.252;2023-08-01T09:25:13;94407.16;;;32.46;59.43
20620;BME280;10469;42.720;23.252;2023-08-01T09:27:39;94402.69;;;32.31;57.46
20620;BME280;10469;42.720;23.252;2023-08-01T09:30:13;94393.47;;;32.85;54.78
20620;BME280;10469;42.720;23.252;2023-08-01T09:32:54;94396.09;;;33.80;51.64
20620;BME280;10469;42.720;23.252;2023-08-01T09:35:20;94403.16;;;35.65;43.76
20620;BME280;10469;42.720;23.252;2023-08-01T09:37:47;94400.56;;;37.12;38.84
20620;BME280;10469;42.720;23.252;2023-08-01T09:40:13;94391.50;;;37.62;37.29
20620;BME280;10469;42.720;23.252;2023-08-01T09:42:41;94402.44;;;33.59;52.73
20620;BME280;10469;42.720;23.252;2023-08-01T09:45:16;94398.44;;;36.93;43.53
20620;BME280;10469;42.720;23.252;2023-08-01T09:47:43;94393.84;;;32.77;57.86
20620;BME280;10469;42.720;23.252;2023-08-01T09:50:20;94392.03;;;33.20;54.11
20620;BME280;10469;42.720;23.252;2023-08-01T09:52:46;94382.44;;;32.92;56.39
20620;BME280;10469;42.720;23.252;2023-08-01T09:55:39;94386.59;;;32.54;57.88
20620;BME280;10469;42.720;23.252;2023-08-01T09:58:04;94375.31;;;32.29;61.26
20620;BME280;10469;42.720;23.252;2023-08-01T10:00:32;94380.91;;;31.33;61.96
20620;BME280;10469;42.720;23.252;2023-08-01T10:02:59;94365.75;;;32.16;62.42
20620;BME280;10469;42.720;23.252;2023-08-01T10:05:29;94366.97;;;34.77;48.91
20620;BME280;10469;42.720;23.252;2023-08-01T10:07:58;94364.19;;;32.95;50.77
20620;BME280;10469;42.720;23.252;2023-08-01T10:10:25;94356.88;;;32.58;53.62
20620;BME280;10469;42.720;23.252;2023-08-01T10:12:51;94351.63;;;33.94;48.95
20620;BME280;10469;42.720;23.252;2023-08-01T10:15:17;94357.81;;;32.91;49.32
20620;BME280;10469;42.720;23.252;2023-08-01T10:17:43;94350.13;;;31.90;54.00
20620;BME280;10469;42.720;23.252;2023-08-01T10:20:10;94340.72;;;32.85;53.58
20620;BME280;10469;42.720;23.252;2023-08-01T10:22:37;94330.28;;;36.49;39.27
20620;BME280;10469;42.720;23.252;2023-08-01T10:25:04;94330.25;;;34.93;41.26
20620;BME280;10469;42.720;23.252;2023-08-01T10:27:30;94314.75;;;37.40;37.11
20620;BME280;10469;42.720;23.252;2023-08-01T10:29:57;94323.88;;;37.13;36.07
20620;BME280;10469;42.720;23.252;2023-08-01T10:32:35;94332.47;;;38.27;33.90
20620;BME280;10469;42.720;23.252;2023-08-01T10:35:01;94313.06;;;33.92;43.08
20620;BME280;10469;42.720;23.252;2023-08-01T10:37:38;94320.84;;;31.92;50.44
20620;BME280;10469;42.720;23.252;2023-08-01T10:40:05;94320.66;;;32.33;53.06
20620;BME280;10469;42.720;23.252;2023-08-01T10:42:39;94323.56;;;32.55;52.79
20620;BME280;10469;42.720;23.252;2023-08-01T10:45:05;94316.59;;;34.25;44.90
20620;BME280;10469;42.720;23.252;2023-08-01T10:47:31;94290.25;;;32.55;46.68
20620;BME280;10469;42.720;23.252;2023-08-01T10:49:57;94292.34;;;34.26;41.59
20620;BME280;10469;42.720;23.252;2023-08-01T10:52:25;94298.69;;;38.38;33.08
20620;BME280;10469;42.720;23.252;2023-08-01T10:57:24;94297.72;;;35.46;36.65
20620;BME280;10469;42.720;23.252;2023-08-01T10:59:49;94292.78;;;35.67;35.50
20620;BME280;10469;42.720;23.252;2023-08-01T11:02:24;94280.50;;;35.58;36.39
20620;BME280;10469;42.720;23.252;2023-08-01T11:05:01;94268.59;;;35.99;36.61
20620;BME280;10469;42.720;23.252;2023-08-01T11:07:27;94273.75;;;33.87;41.17
20620;BME280;10469;42.720;23.252;2023-08-01T11:12:38;94268.97;;;33.16;40.91
20620;BME280;10469;42.720;23.252;2023-08-01T11:15:09;94276.44;;;35.10;36.79
20620;BME280;10469;42.720;23.252;2023-08-01T11:17:37;94258.22;;;34.95;33.48
20620;BME280;10469;42.720;23.252;2023-08-01T11:20:07;94262.00;;;36.20;28.79
20620;BME280;10469;42.720;23.252;2023-08-01T11:22:37;94266.22;;;35.52;28.22
20620;BME280;10469;42.720;23.252;2023-08-01T11:25:04;94249.75;;;35.16;27.22
20620;BME280;10469;42.720;23.252;2023-08-01T11:27:31;94252.81;;;35.81;28.24
20620;BME280;10469;42.720;23.252;2023-08-01T11:29:56;94247.44;;;36.01;27.94
20620;BME280;10469;42.720;23.252;2023-08-01T11:32:36;94247.50;;;36.97;25.72
20620;BME280;10469;42.720;23.252;2023-08-01T11:35:02;94256.25;;;35.55;26.15
20620;BME280;10469;42.720;23.252;2023-08-01T11:37:30;94253.09;;;35.46;26.46
20620;BME280;10469;42.720;23.252;2023-08-01T11:39:56;94228.44;;;35.40;27.62
20620;BME280;10469;42.720;23.252;2023-08-01T11:42:23;94237.91;;;35.95;26.84
20620;BME280;10469;42.720;23.252;2023-08-01T11:44:48;94222.72;;;36.95;25.60
20620;BME280;10469;42.720;23.252;2023-08-01T11:47:15;94230.28;;;34.32;28.78
20620;BME280;10469;42.720;23.252;2023-08-01T11:49:49;94233.59;;;31.79;32.88
20620;BME280;10469;42.720;23.252;2023-08-01T11:52:24;94234.06;;;33.18;32.15
20620;BME280;10469;42.720;23.252;2023-08-01T11:54:51;94224.19;;;31.94;34.09
20620;BME280;10469;42.720;23.252;2023-08-01T11:57:17;94220.53;;;32.74;32.34
20620;BME280;10469;42.720;23.252;2023-08-01T11:59:46;94208.19;;;32.54;32.24
20620;BME280;10469;42.720;23.252;2023-08-01T12:02:29;94221.47;;;31.36;33.99
20620;BME280;10469;42.720;23.252;2023-08-01T12:04:58;94221.84;;;31.38;30.85
20620;BME280;10469;42.720;23.252;2023-08-01T12:07:26;94213.19;;;31.39;30.65
20620;BME280;10469;42.720;23.252;2023-08-01T12:09:56;94218.34;;;30.96;31.23
20620;BME280;10469;42.720;23.252;2023-08-01T12:12:22;94208.28;;;31.26;32.94
20620;BME280;10469;42.720;23.252;2023-08-01T12:14:48;94201.78;;;31.04;31.81
20620;BME280;10469;42.720;23.252;2023-08-01T12:17:14;94208.78;;;31.35;30.75
20620;BME280;10469;42.720;23.252;2023-08-01T12:19:39;94195.16;;;31.15;30.74
20620;BME280;10469;42.720;23.252;2023-08-01T12:22:06;94200.28;;;30.69;31.26
20620;BME280;10469;42.720;23.252;2023-08-01T12:24:32;94184.44;;;30.66;31.17
20620;BME280;10469;42.720;23.252;2023-08-01T12:26:59;94193.94;;;30.68;31.80
20620;BME280;10469;42.720;23.252;2023-08-01T12:29:24;94174.94;;;31.11;32.68
20620;BME280;10469;42.720;23.252;2023-08-01T12:31:51;94184.66;;;31.39;31.38
20620;BME280;10469;42.720;23.252;2023-08-01T12:34:16;94184.41;;;31.07;31.51
20620;BME280;10469;42.720;23.252;2023-08-01T12:36:42;94178.66;;;31.30;31.83
20620;BME280;10469;42.720;23.252;2023-08-01T12:39:07;94179.13;;;30.87;31.43
20620;BME280;10469;42.720;23.252;2023-08-01T12:41:37;94176.69;;;30.79;31.64
20620;BME280;10469;42.720;23.252;2023-08-01T12:44:03;94182.69;;;31.39;31.43
20620;BME280;10469;42.720;23.252;2023-08-01T12:46:29;94168.38;;;31.30;31.10
20620;BME280;10469;42.720;23.252;2023-08-01T12:48:55;94172.28;;;31.26;30.76